sensor_id;sensor_type;location;lat;lon;timestamp;pressure;altitude;pressure_sealevel;temperature;humidity
74474;BME280;62922;-6.168;106.796;2023-07-31T00:02:10;101168.28;;;30.58;54.45
74474;BME280;62922;-6.168;106.796;2023-07-31T00:04:36;101167.13;;;30.59;54.29
74474;BME280;62922;-6.168;106.796;2023-07-31T00:07:03;101141.66;;;30.42;53.91
74474;BME280;62922;-6.168;106.796;2023-07-31T00:09:29;101173.44;;;30.64;54.30
74474;BME280;62922;-6.168;106.796;2023-07-31T00:11:56;101162.84;;;30.61;54.60
74474;BME280;62922;-6.168;106.796;2023-07-31T00:14:22;101127.47;;;30.47;54.65
74474;BME280;62922;-6.168;106.796;2023-07-31T00:16:51;101125.34;;;30.52;55.08
74474;BME280;62922;-6.168;106.796;2023-07-31T00:19:20;101148.59;;;30.66;55.02
74474;BME280;62922;-6.168;106.796;2023-07-31T00:21:46;101179.94;;;30.96;56.79
74474;BME280;62922;-6.168;106.796;2023-07-31T00:24:13;101166.50;;;30.93;57.59
74474;BME280;62922;-6.168;106.796;2023-07-31T00:26:39;101148.13;;;30.73;57.01
74474;BME280;62922;-6.168;106.796;2023-07-31T00:29:05;101181.09;;;30.95;55.62
74474;BME280;62922;-6.168;106.796;2023-07-31T00:31:31;101196.47;;;30.89;54.95
74474;BME280;62922;-6.168;106.796;2023-07-31T00:33:58;101194.41;;;30.81;55.43
74474;BME280;62922;-6.168;106.796;2023-07-31T00:36:24;101209.03;;;30.83;55.05
74474;BME280;62922;-6.168;106.796;2023-07-31T00:38:50;101165.91;;;30.51;55.07
74474;BME280;62922;-6.168;106.796;2023-07-31T00:41:17;101174.34;;;30.51;54.64
74474;BME280;62922;-6.168;106.796;2023-07-31T00:43:43;101204.81;;;30.72;54.76
74474;BME280;62922;-6.168;106.796;2023-07-31T00:46:10;101209.41;;;30.67;54.80
74474;BME280;62922;-6.168;106.796;2023-07-31T00:48:37;101193.13;;;30.56;54.43
74474;BME280;62922;-6.168;106.796;2023-07-31T00:51:05;101201.75;;;30.59;54.88
74474;BME280;62922;-6.168;106.796;2023-07-31T00:53:31;101168.81;;;30.38;54.25
74474;BME280;62922;-6.168;106.796;2023-07-31T00:55:58;101214.75;;;30.69;54.51
74474;BME280;62922;-6.168;106.796;2023-07-31T00:58:25;101195.25;;;30.50;54.64
74474;BME280;62922;-6.168;106.796;2023-07-31T01:00:51;101209.91;;;30.69;54.49
74474;BME280;62922;-6.168;106.796;2023-07-31T01:03:18;101212.56;;;30.66;54.39
74474;BME280;62922;-6.168;106.796;2023-07-31T01:06:15;101200.06;;;30.58;54.42
74474;BME280;62922;-6.168;106.796;2023-07-31T01:08:58;101214.22;;;30.67;53.91
74474;BME280;62922;-6.168;106.796;2023-07-31T01:11:33;101216.41;;;30.70;54.01
74474;BME280;62922;-6.168;106.796;2023-07-31T01:14:01;101176.53;;;30.54;54.12
74474;BME280;62922;-6.168;106.796;2023-07-31T01:16:27;101220.69;;;30.90;54.64
74474;BME280;62922;-6.168;106.796;2023-07-31T01:18:54;101217.84;;;30.90;55.22
74474;BME280;62922;-6.168;106.796;2023-07-31T01:26:47;101231.59;;;30.83;53.26
74474;BME280;62922;-6.168;106.796;2023-07-31T01:31:57;101210.56;;;30.66;52.63
74474;BME280;62922;-6.168;106.796;2023-07-31T01:34:28;101230.84;;;30.77;53.18
74474;BME280;62922;-6.168;106.796;2023-07-31T01:36:56;101189.78;;;30.54;52.83
74474;BME280;62922;-6.168;106.796;2023-07-31T01:39:24;101180.31;;;30.50;53.34
74474;BME280;62922;-6.168;106.796;2023-07-31T01:41:50;101189.22;;;30.43;50.92
74474;BME280;62922;-6.168;106.796;2023-07-31T01:44:17;101224.19;;;30.73;50.31
74474;BME280;62922;-6.168;106.796;2023-07-31T01:46:46;101188.94;;;30.53;49.67
74474;BME280;62922;-6.168;106.796;2023-07-31T01:49:12;101210.75;;;30.70;50.35
74474;BME280;62922;-6.168;106.796;2023-07-31T01:51:38;101211.09;;;30.68;49.88
74474;BME280;62922;-6.168;106.796;2023-07-31T01:54:05;101211.94;;;30.69;50.73
74474;BME280;62922;-6.168;106.796;2023-07-31T01:56:31;101194.00;;;30.65;50.13
74474;BME280;62922;-6.168;106.796;2023-07-31T01:58:57;101189.22;;;30.65;49.76
74474;BME280;62922;-6.168;106.796;2023-07-31T02:01:24;101166.75;;;30.52;49.09
74474;BME280;62922;-6.168;106.796;2023-07-31T02:03:53;101209.66;;;30.80;48.35
74474;BME280;62922;-6.168;106.796;2023-07-31T02:06:20;101198.09;;;30.81;49.04
74474;BME280;62922;-6.168;106.796;2023-07-31T02:08:46;101197.22;;;30.81;51.09
74474;BME280;62922;-6.168;106.796;2023-07-31T02:11:12;101194.94;;;30.83;51.07
74474;BME280;62922;-6.168;106.796;2023-07-31T02:13:39;101190.78;;;30.80;51.24
74474;BME280;62922;-6.168;106.796;2023-07-31T02:16:05;101188.50;;;30.82;51.60
74474;BME280;62922;-6.168;106.796;2023-07-31T02:18:31;101197.66;;;30.88;51.71
74474;BME280;62922;-6.168;106.796;2023-07-31T02:20:58;101181.81;;;30.78;51.73
74474;BME280;62922;-6.168;106.796;2023-07-31T02:23:24;101181.50;;;30.80;51.18
74474;BME280;62922;-6.168;106.796;2023-07-31T02:25:50;101179.06;;;30.87;51.09
74474;BME280;62922;-6.168;106.796;2023-07-31T02:28:17;101189.06;;;30.93;51.78
74474;BME280;62922;-6.168;106.796;2023-07-31T02:30:45;101139.78;;;30.59;51.38
74474;BME280;62922;-6.168;106.796;2023-07-31T02:33:15;101194.53;;;30.98;51.57
74474;BME280;62922;-6.168;106.796;2023-07-31T02:35:42;101177.97;;;30.96;52.08
74474;BME280;62922;-6.168;106.796;2023-07-31T02:38:08;101179.78;;;31.01;51.27
74474;BME280;62922;-6.168;106.796;2023-07-31T02:40:34;101143.09;;;30.84;51.36
74474;BME280;62922;-6.168;106.796;2023-07-31T02:43:01;101131.09;;;30.78;51.50
74474;BME280;62922;-6.168;106.796;2023-07-31T02:45:27;101120.56;;;30.84;49.96
74474;BME280;62922;-6.168;106.796;2023-07-31T02:47:54;101172.06;;;31.15;48.81
74474;BME280;62922;-6.168;106.796;2023-07-31T02:50:20;101164.13;;;31.17;48.49
74474;BME280;62922;-6.168;106.796;2023-07-31T02:52:48;101137.00;;;30.99;50.02
74474;BME280;62922;-6.168;106.796;2023-07-31T02:55:17;101168.59;;;31.18;49.02
74474;BME280;62922;-6.168;106.796;2023-07-31T02:57:43;101167.63;;;31.22;48.76
74474;BME280;62922;-6.168;106.796;2023-07-31T03:00:10;101152.00;;;31.16;50.57
74474;BME280;62922;-6.168;106.796;2023-07-31T03:02:36;101154.31;;;31.14;51.40
74474;BME280;62922;-6.168;106.796;2023-07-31T03:05:03;101143.69;;;31.11;51.77
74474;BME280;62922;-6.168;106.796;2023-07-31T03:07:29;101155.84;;;31.20;51.17
74474;BME280;62922;-6.168;106.796;2023-07-31T03:09:56;101156.66;;;31.21;50.85
74474;BME280;62922;-6.168;106.796;2023-07-31T03:12:23;101102.50;;;30.93;50.19
74474;BME280;62922;-6.168;106.796;2023-07-31T03:14:49;101144.72;;;31.24;51.35
74474;BME280;62922;-6.168;106.796;2023-07-31T03:17:18;101137.41;;;31.14;51.98
74474;BME280;62922;-6.168;106.796;2023-07-31T03:19:44;101135.44;;;31.23;50.86
74474;BME280;62922;-6.168;106.796;2023-07-31T03:22:11;101125.81;;;31.24;49.46
74474;BME280;62922;-6.168;106.796;2023-07-31T03:24:37;101132.19;;;31.38;50.25
74474;BME280;62922;-6.168;106.796;2023-07-31T03:27:04;101135.00;;;31.38;50.64
74474;BME280;62922;-6.168;106.796;2023-07-31T03:29:30;101079.84;;;31.07;51.55
74474;BME280;62922;-6.168;106.796;2023-07-31T03:31:57;101078.19;;;31.06;50.87
74474;BME280;62922;-6.168;106.796;2023-07-31T03:34:23;101119.09;;;31.42;50.36
74474;BME280;62922;-6.168;106.796;2023-07-31T03:36:49;101122.09;;;31.46;49.19
74474;BME280;62922;-6.168;106.796;2023-07-31T03:39:16;101106.97;;;31.42;50.15
74474;BME280;62922;-6.168;106.796;2023-07-31T03:41:42;101107.81;;;31.42;50.98
74474;BME280;62922;-6.168;106.796;2023-07-31T03:44:08;101118.75;;;31.44;51.15
74474;BME280;62922;-6.168;106.796;2023-07-31T03:46:35;101119.59;;;31.53;49.41
74474;BME280;62922;-6.168;106.796;2023-07-31T03:49:02;101082.75;;;31.41;50.48
74474;BME280;62922;-6.168;106.796;2023-07-31T03:51:28;101107.66;;;31.56;50.11
74474;BME280;62922;-6.168;106.796;2023-07-31T03:53:57;101093.53;;;31.56;49.11
74474;BME280;62922;-6.168;106.796;2023-07-31T03:56:23;101048.59;;;31.42;49.18
74474;BME280;62922;-6.168;106.796;2023-07-31T03:58:52;101025.81;;;31.30;48.47
74474;BME280;62922;-6.168;106.796;2023-07-31T04:01:19;101086.59;;;31.79;47.50
74474;BME280;62922;-6.168;106.796;2023-07-31T04:03:48;101089.09;;;31.81;46.96
74474;BME280;62922;-6.168;106.796;2023-07-31T04:06:14;101063.81;;;31.76;47.56
74474;BME280;62922;-6.168;106.796;2023-07-31T04:08:44;101041.44;;;31.62;47.39
74474;BME280;62922;-6.168;106.796;2023-07-31T04:11:11;101090.78;;;31.90;47.36
74474;BME280;62922;-6.168;106.796;2023-07-31T04:13:38;101045.59;;;31.73;47.14
74474;BME280;62922;-6.168;106.796;2023-07-31T04:16:05;101020.03;;;31.61;46.72
74474;BME280;62922;-6.168;106.796;2023-07-31T04:18:34;101064.34;;;31.95;47.65
74474;BME280;62922;-6.168;106.796;2023-07-31T04:21:00;100974.22;;;31.30;48.89
74474;BME280;62922;-6.168;106.796;2023-07-31T04:23:28;100974.88;;;31.01;50.96
74474;BME280;62922;-6.168;106.796;2023-07-31T04:25:54;100965.25;;;30.94;50.87
74474;BME280;62922;-6.168;106.796;2023-07-31T04:28:23;101020.53;;;31.37;48.95
74474;BME280;62922;-6.168;106.796;2023-07-31T04:30:51;101044.44;;;31.66;48.54
74474;BME280;62922;-6.168;106.796;2023-07-31T04:33:18;100987.16;;;31.31;49.48
74474;BME280;62922;-6.168;106.796;2023-07-31T04:35:54;101061.53;;;31.60;49.28
74474;BME280;62922;-6.168;106.796;2023-07-31T04:38:21;101041.94;;;31.55;50.00
74474;BME280;62922;-6.168;106.796;2023-07-31T04:40:48;101059.22;;;31.63;49.45
74474;BME280;62922;-6.168;106.796;2023-07-31T04:43:17;100965.25;;;31.19;49.63
74474;BME280;62922;-6.168;106.796;2023-07-31T04:45:45;101035.81;;;31.79;48.46
74474;BME280;62922;-6.168;106.796;2023-07-31T04:48:13;101032.78;;;31.76;48.59
74474;BME280;62922;-6.168;106.796;2023-07-31T04:50:40;101025.16;;;31.76;48.42
74474;BME280;62922;-6.168;106.796;2023-07-31T04:53:06;100976.59;;;31.36;48.92
74474;BME280;62922;-6.168;106.796;2023-07-31T04:55:33;100977.06;;;31.47;49.01
74474;BME280;62922;-6.168;106.796;2023-07-31T04:57:59;101022.34;;;31.85;48.45
74474;BME280;62922;-6.168;106.796;2023-07-31T05:00:25;101022.50;;;31.97;47.85
74474;BME280;62922;-6.168;106.796;2023-07-31T05:02:52;100889.16;;;31.36;47.54
74474;BME280;62922;-6.168;106.796;2023-07-31T05:05:18;64697.81;;;-141.63;100.00
74474;BME280;62922;-6.168;106.796;2023-07-31T05:07:44;64697.81;;;-141.63;100.00
74474;BME280;62922;-6.168;106.796;2023-07-31T05:10:11;64697.81;;;-141.63;100.00
74474;BME280;62922;-6.168;106.796;2023-07-31T05:12:37;64697.81;;;-141.63;100.00
74474;BME280;62922;-6.168;106.796;2023-07-31T05:15:04;64697.81;;;-141.63;100.00
74474;BME280;62922;-6.168;106.796;2023-07-31T05:17:30;64697.81;;;-141.63;100.00
74474;BME280;62922;-6.168;106.796;2023-07-31T05:19:57;64697.81;;;-141.63;100.00
74474;BME280;62922;-6.168;106.796;2023-07-31T05:22:24;64697.81;;;-141.63;100.00
74474;BME280;62922;-6.168;106.796;2023-07-31T05:24:50;64697.81;;;-141.63;100.00
74474;BME280;62922;-6.168;106.796;2023-07-31T05:27:22;64697.81;;;-141.63;100.00
74474;BME280;62922;-6.168;106.796;2023-07-31T05:29:48;64697.81;;;-141.63;100.00
74474;BME280;62922;-6.168;106.796;2023-07-31T05:32:15;64697.81;;;-141.63;100.00
74474;BME280;62922;-6.168;106.796;2023-07-31T05:34:41;64697.81;;;-141.63;100.00
74474;BME280;62922;-6.168;106.796;2023-07-31T05:37:09;64697.81;;;-141.63;100.00
74474;BME280;62922;-6.168;106.796;2023-07-31T05:39:35;64697.81;;;-141.63;100.00
74474;BME280;62922;-6.168;106.796;2023-07-31T05:42:02;64697.81;;;-141.63;100.00
74474;BME280;62922;-6.168;106.796;2023-07-31T05:44:28;64697.81;;;-141.63;100.00
74474;BME280;62922;-6.168;106.796;2023-07-31T05:46:54;64697.81;;;-141.63;100.00
74474;BME280;62922;-6.168;106.796;2023-07-31T05:49:21;64697.81;;;-141.63;100.00
74474;BME280;62922;-6.168;106.796;2023-07-31T05:51:47;64697.81;;;-141.63;100.00
74474;BME280;62922;-6.168;106.796;2023-07-31T05:54:13;64697.81;;;-141.63;100.00
74474;BME280;62922;-6.168;106.796;2023-07-31T05:56:40;64697.81;;;-141.63;100.00
74474;BME280;62922;-6.168;106.796;2023-07-31T05:59:06;64697.81;;;-141.63;100.00
74474;BME280;62922;-6.168;106.796;2023-07-31T06:01:32;64697.81;;;-141.63;100.00
74474;BME280;62922;-6.168;106.796;2023-07-31T06:03:59;64697.81;;;-141.63;100.00
74474;BME280;62922;-6.168;106.796;2023-07-31T06:06:25;64697.81;;;-141.63;100.00
74474;BME280;62922;-6.168;106.796;2023-07-31T06:08:51;64697.81;;;-141.63;100.00
74474;BME280;62922;-6.168;106.796;2023-07-31T06:11:18;64697.81;;;-141.63;100.00
74474;BME280;62922;-6.168;106.796;2023-07-31T06:13:47;64697.81;;;-141.63;100.00
74474;BME280;62922;-6.168;106.796;2023-07-31T06:16:15;64697.81;;;-141.63;100.00
74474;BME280;62922;-6.168;106.796;2023-07-31T06:18:41;64697.81;;;-141.63;100.00
74474;BME280;62922;-6.168;106.796;2023-07-31T06:21:09;64697.81;;;-141.63;100.00
74474;BME280;62922;-6.168;106.796;2023-07-31T06:23:35;64697.81;;;-141.63;100.00
74474;BME280;62922;-6.168;106.796;2023-07-31T06:26:02;64697.81;;;-141.63;100.00
74474;BME280;62922;-6.168;106.796;2023-07-31T06:28:28;64697.81;;;-141.63;100.00
74474;BME280;62922;-6.168;106.796;2023-07-31T06:30:55;64697.81;;;-141.63;100.00
74474;BME280;62922;-6.168;106.796;2023-07-31T06:33:22;64697.81;;;-141.63;100.00
74474;BME280;62922;-6.168;106.796;2023-07-31T06:35:48;64697.81;;;-141.63;100.00
74474;BME280;62922;-6.168;106.796;2023-07-31T06:38:14;64697.81;;;-141.63;100.00
74474;BME280;62922;-6.168;106.796;2023-07-31T06:40:41;64697.81;;;-141.63;100.00
74474;BME280;62922;-6.168;106.796;2023-07-31T06:43:07;64697.81;;;-141.63;100.00
74474;BME280;62922;-6.168;106.796;2023-07-31T06:45:36;64697.81;;;-141.63;100.00
74474;BME280;62922;-6.168;106.796;2023-07-31T06:48:03;64697.81;;;-141.63;100.00
74474;BME280;62922;-6.168;106.796;2023-07-31T06:50:31;64697.81;;;-141.63;100.00
74474;BME280;62922;-6.168;106.796;2023-07-31T06:52:57;64697.81;;;-141.63;100.00
74474;BME280;62922;-6.168;106.796;2023-07-31T06:55:25;64697.81;;;-141.63;100.00
74474;BME280;62922;-6.168;106.796;2023-07-31T06:57:53;64697.81;;;-141.63;100.00
74474;BME280;62922;-6.168;106.796;2023-07-31T07:00:21;64697.81;;;-141.63;100.00
74474;BME280;62922;-6.168;106.796;2023-07-31T07:02:47;64697.81;;;-141.63;100.00
74474;BME280;62922;-6.168;106.796;2023-07-31T07:05:14;64697.81;;;-141.63;100.00
74474;BME280;62922;-6.168;106.796;2023-07-31T07:07:41;64697.81;;;-141.63;100.00
74474;BME280;62922;-6.168;106.796;2023-07-31T07:10:08;64697.81;;;-141.63;100.00
74474;BME280;62922;-6.168;106.796;2023-07-31T07:12:35;64697.81;;;-141.63;100.00
74474;BME280;62922;-6.168;106.796;2023-07-31T07:15:02;64697.81;;;-141.63;100.00
74474;BME280;62922;-6.168;106.796;2023-07-31T07:17:29;64697.81;;;-141.63;100.00
74474;BME280;62922;-6.168;106.796;2023-07-31T07:19:57;64697.81;;;-141.63;100.00
74474;BME280;62922;-6.168;106.796;2023-07-31T07:22:24;64697.81;;;-141.63;100.00
74474;BME280;62922;-6.168;106.796;2023-07-31T07:24:51;64697.81;;;-141.63;100.00
74474;BME280;62922;-6.168;106.796;2023-07-31T07:27:17;64697.81;;;-141.63;100.00
74474;BME280;62922;-6.168;106.796;2023-07-31T07:29:45;64697.81;;;-141.63;100.00
74474;BME280;62922;-6.168;106.796;2023-07-31T07:32:11;64697.81;;;-141.63;100.00
74474;BME280;62922;-6.168;106.796;2023-07-31T07:34:38;64697.81;;;-141.63;100.00
74474;BME280;62922;-6.168;106.796;2023-07-31T07:37:05;64697.81;;;-141.63;100.00
74474;BME280;62922;-6.168;106.796;2023-07-31T07:39:31;64697.81;;;-141.63;100.00
74474;BME280;62922;-6.168;106.796;2023-07-31T07:41:57;64697.81;;;-141.63;100.00
74474;BME280;62922;-6.168;106.796;2023-07-31T07:44:24;64697.81;;;-141.63;100.00
74474;BME280;62922;-6.168;106.796;2023-07-31T07:46:50;64697.81;;;-141.63;100.00
74474;BME280;62922;-6.168;106.796;2023-07-31T07:49:16;64697.81;;;-141.63;100.00
74474;BME280;62922;-6.168;106.796;2023-07-31T07:51:42;64697.81;;;-141.63;100.00
74474;BME280;62922;-6.168;106.796;2023-07-31T07:54:09;64697.81;;;-141.63;100.00
74474;BME280;62922;-6.168;106.796;2023-07-31T07:56:35;64697.81;;;-141.63;100.00
74474;BME280;62922;-6.168;106.796;2023-07-31T07:59:02;64697.81;;;-141.63;100.00
74474;BME280;62922;-6.168;106.796;2023-07-31T08:01:28;64697.81;;;-141.63;100.00
74474;BME280;62922;-6.168;106.796;2023-07-31T08:03:54;64697.81;;;-141.63;100.00
74474;BME280;62922;-6.168;106.796;2023-07-31T08:06:21;64697.81;;;-141.63;100.00
74474;BME280;62922;-6.168;106.796;2023-07-31T08:08:48;64697.81;;;-141.63;100.00
74474;BME280;62922;-6.168;106.796;2023-07-31T08:11:14;64697.81;;;-141.63;100.00
74474;BME280;62922;-6.168;106.796;2023-07-31T08:13:41;64697.81;;;-141.63;100.00
74474;BME280;62922;-6.168;106.796;2023-07-31T08:16:07;64697.81;;;-141.63;100.00
74474;BME280;62922;-6.168;106.796;2023-07-31T08:18:34;64697.81;;;-141.63;100.00
74474;BME280;62922;-6.168;106.796;2023-07-31T08:21:03;64697.81;;;-141.63;100.00
74474;BME280;62922;-6.168;106.796;2023-07-31T08:23:30;64697.81;;;-141.63;100.00
74474;BME280;62922;-6.168;106.796;2023-07-31T08:25:56;64697.81;;;-141.63;100.00
74474;BME280;62922;-6.168;106.796;2023-07-31T08:28:22;64697.81;;;-141.63;100.00
74474;BME280;62922;-6.168;106.796;2023-07-31T08:30:48;64697.81;;;-141.63;100.00
74474;BME280;62922;-6.168;106.796;2023-07-31T08:33:16;64697.81;;;-141.63;100.00
74474;BME280;62922;-6.168;106.796;2023-07-31T08:35:42;64697.81;;;-141.63;100.00
74474;BME280;62922;-6.168;106.796;2023-07-31T08:38:09;64697.81;;;-141.63;100.00
74474;BME280;62922;-6.168;106.796;2023-07-31T08:40:37;64697.81;;;-141.63;100.00
74474;BME280;62922;-6.168;106.796;2023-07-31T08:43:08;64697.81;;;-141.63;100.00
74474;BME280;62922;-6.168;106.796;2023-07-31T08:45:35;64697.81;;;-141.63;100.00
74474;BME280;62922;-6.168;106.796;2023-07-31T08:48:02;64697.81;;;-141.63;100.00
74474;BME280;62922;-6.168;106.796;2023-07-31T08:50:28;64697.81;;;-141.63;100.00
74474;BME280;62922;-6.168;106.796;2023-07-31T08:52:54;64697.81;;;-141.63;100.00
74474;BME280;62922;-6.168;106.796;2023-07-31T08:55:21;64697.81;;;-141.63;100.00
74474;BME280;62922;-6.168;106.796;2023-07-31T08:57:54;64697.81;;;-141.63;100.00
74474;BME280;62922;-6.168;106.796;2023-07-31T09:00:21;64697.81;;;-141.63;100.00
74474;BME280;62922;-6.168;106.796;2023-07-31T09:02:52;64697.81;;;-141.63;100.00
74474;BME280;62922;-6.168;106.796;2023-07-31T09:05:21;64697.81;;;-141.63;100.00
74474;BME280;62922;-6.168;106.796;2023-07-31T09:07:51;64697.81;;;-141.63;100.00
74474;BME280;62922;-6.168;106.796;2023-07-31T09:10:17;64697.81;;;-141.63;100.00
74474;BME280;62922;-6.168;106.796;2023-07-31T09:12:44;64697.81;;;-141.63;100.00
74474;BME280;62922;-6.168;106.796;2023-07-31T09:15:11;64697.81;;;-141.63;100.00
74474;BME280;62922;-6.168;106.796;2023-07-31T09:17:38;64697.81;;;-141.63;100.00
74474;BME280;62922;-6.168;106.796;2023-07-31T09:20:22;64697.81;;;-141.63;100.00
74474;BME280;62922;-6.168;106.796;2023-07-31T09:22:49;64697.81;;;-141.63;100.00
74474;BME280;62922;-6.168;106.796;2023-07-31T09:25:19;64697.81;;;-141.63;100.00
74474;BME280;62922;-6.168;106.796;2023-07-31T09:30:17;64697.81;;;-141.63;100.00
74474;BME280;62922;-6.168;106.796;2023-07-31T09:32:46;64697.81;;;-141.63;100.00
74474;BME280;62922;-6.168;106.796;2023-07-31T09:35:28;64697.81;;;-141.63;100.00
74474;BME280;62922;-6.168;106.796;2023-07-31T09:37:58;64697.81;;;-141.63;100.00
74474;BME280;62922;-6.168;106.796;2023-07-31T09:40:30;64697.81;;;-141.63;100.00
74474;BME280;62922;-6.168;106.796;2023-07-31T09:43:01;64697.81;;;-141.63;100.00
74474;BME280;62922;-6.168;106.796;2023-07-31T09:45:28;64697.81;;;-141.63;100.00
74474;BME280;62922;-6.168;106.796;2023-07-31T09:47:56;64697.81;;;-141.63;100.00
74474;BME280;62922;-6.168;106.796;2023-07-31T09:50:23;64697.81;;;-141.63;100.00
74474;BME280;62922;-6.168;106.796;2023-07-31T09:52:51;64697.81;;;-141.63;100.00
74474;BME280;62922;-6.168;106.796;2023-07-31T09:55:18;64697.81;;;-141.63;100.00
74474;BME280;62922;-6.168;106.796;2023-07-31T09:57:47;64697.81;;;-141.63;100.00
74474;BME280;62922;-6.168;106.796;2023-07-31T10:00:17;64697.81;;;-141.63;100.00
74474;BME280;62922;-6.168;106.796;2023-07-31T10:02:46;64697.81;;;-141.63;100.00
74474;BME280;62922;-6.168;106.796;2023-07-31T10:05:15;64697.81;;;-141.63;100.00
74474;BME280;62922;-6.168;106.796;2023-07-31T10:07:50;64697.81;;;-141.63;100.00
74474;BME280;62922;-6.168;106.796;2023-07-31T10:10:20;64697.81;;;-141.63;100.00
74474;BME280;62922;-6.168;106.796;2023-07-31T10:12:50;64697.81;;;-141.63;100.00
74474;BME280;62922;-6.168;106.796;2023-07-31T10:15:18;64697.81;;;-141.63;100.00
74474;BME280;62922;-6.168;106.796;2023-07-31T10:17:48;64697.81;;;-141.63;100.00
74474;BME280;62922;-6.168;106.796;2023-07-31T10:20:16;64697.81;;;-141.63;100.00
74474;BME280;62922;-6.168;106.796;2023-07-31T10:22:43;64697.81;;;-141.63;100.00
74474;BME280;62922;-6.168;106.796;2023-07-31T10:25:12;64697.81;;;-141.63;100.00
74474;BME280;62922;-6.168;106.796;2023-07-31T10:27:39;64697.81;;;-141.63;100.00
74474;BME280;62922;-6.168;106.796;2023-07-31T10:30:11;64697.81;;;-141.63;100.00
74474;BME280;62922;-6.168;106.796;2023-07-31T10:32:39;64697.81;;;-141.63;100.00
74474;BME280;62922;-6.168;106.796;2023-07-31T10:35:08;64697.81;;;-141.63;100.00
74474;BME280;62922;-6.168;106.796;2023-07-31T10:37:39;64697.81;;;-141.63;100.00
74474;BME280;62922;-6.168;106.796;2023-07-31T10:40:09;64697.81;;;-141.63;100.00
74474;BME280;62922;-6.168;106.796;2023-07-31T10:42:44;64697.81;;;-141.63;100.00
74474;BME280;62922;-6.168;106.796;2023-07-31T10:45:11;64697.81;;;-141.63;100.00
74474;BME280;62922;-6.168;106.796;2023-07-31T10:47:45;64697.81;;;-141.63;100.00
74474;BME280;62922;-6.168;106.796;2023-07-31T10:52:40;64697.81;;;-141.63;100.00
74474;BME280;62922;-6.168;106.796;2023-07-31T10:55:27;64697.81;;;-141.63;100.00
74474;BME280;62922;-6.168;106.796;2023-07-31T10:57:56;64697.81;;;-141.63;100.00
74474;BME280;62922;-6.168;106.796;2023-07-31T11:00:28;64697.81;;;-141.63;100.00
74474;BME280;62922;-6.168;106.796;2023-07-31T11:08:27;64697.81;;;-141.63;100.00
74474;BME280;62922;-6.168;106.796;2023-07-31T11:16:05;64697.81;;;-141.63;100.00
74474;BME280;62922;-6.168;106.796;2023-07-31T11:18:32;64697.81;;;-141.63;100.00
74474;BME280;62922;-6.168;106.796;2023-07-31T11:20:58;64697.81;;;-141.63;100.00
74474;BME280;62922;-6.168;106.796;2023-07-31T11:23:25;64697.81;;;-141.63;100.00
74474;BME280;62922;-6.168;106.796;2023-07-31T11:25:51;64697.81;;;-141.63;100.00
74474;BME280;62922;-6.168;106.796;2023-07-31T11:28:19;64697.81;;;-141.63;100.00
74474;BME280;62922;-6.168;106.796;2023-07-31T11:30:46;64697.81;;;-141.63;100.00
74474;BME280;62922;-6.168;106.796;2023-07-31T11:33:15;64697.81;;;-141.63;100.00
74474;BME280;62922;-6.168;106.796;2023-07-31T11:35:46;64697.81;;;-141.63;100.00
74474;BME280;62922;-6.168;106.796;2023-07-31T11:38:25;64697.81;;;-141.63;100.00
74474;BME280;62922;-6.168;106.796;2023-07-31T11:40:53;64697.81;;;-141.63;100.00
74474;BME280;62922;-6.168;106.796;2023-07-31T11:43:21;64697.81;;;-141.63;100.00
74474;BME280;62922;-6.168;106.796;2023-07-31T11:45:51;64697.81;;;-141.63;100.00
74474;BME280;62922;-6.168;106.796;2023-07-31T11:48:20;64697.81;;;-141.63;100.00
74474;BME280;62922;-6.168;106.796;2023-07-31T11:50:50;64697.81;;;-141.63;100.00
74474;BME280;62922;-6.168;106.796;2023-07-31T11:56:06;64697.81;;;-141.63;100.00
74474;BME280;62922;-6.168;106.796;2023-07-31T11:58:34;64697.81;;;-141.63;100.00
74474;BME280;62922;-6.168;106.796;2023-07-31T12:01:02;64697.81;;;-141.63;100.00
74474;BME280;62922;-6.168;106.796;2023-07-31T12:03:29;64697.81;;;-141.63;100.00
74474;BME280;62922;-6.168;106.796;2023-07-31T12:05:55;64697.81;;;-141.63;100.00
74474;BME280;62922;-6.168;106.796;2023-07-31T12:08:23;64697.81;;;-141.63;100.00
74474;BME280;62922;-6.168;106.796;2023-07-31T12:10:52;64697.81;;;-141.63;100.00
74474;BME280;62922;-6.168;106.796;2023-07-31T12:13:23;64697.81;;;-141.63;100.00
74474;BME280;62922;-6.168;106.796;2023-07-31T12:15:56;64697.81;;;-141.63;100.00
74474;BME280;62922;-6.168;106.796;2023-07-31T12:18:24;64697.81;;;-141.63;100.00
74474;BME280;62922;-6.168;106.796;2023-07-31T12:20:56;64697.81;;;-141.63;100.00
74474;BME280;62922;-6.168;106.796;2023-07-31T12:23:25;64697.81;;;-141.63;100.00
74474;BME280;62922;-6.168;106.796;2023-07-31T12:26:06;64697.81;;;-141.63;100.00
74474;BME280;62922;-6.168;106.796;2023-07-31T12:28:44;64697.81;;;-141.63;100.00
74474;BME280;62922;-6.168;106.796;2023-07-31T12:31:12;64697.81;;;-141.63;100.00
74474;BME280;62922;-6.168;106.796;2023-07-31T12:33:40;64697.81;;;-141.63;100.00
74474;BME280;62922;-6.168;106.796;2023-07-31T12:36:13;64697.81;;;-141.63;100.00
74474;BME280;62922;-6.168;106.796;2023-07-31T12:38:43;64697.81;;;-141.63;100.00
74474;BME280;62922;-6.168;106.796;2023-07-31T12:41:09;64697.81;;;-141.63;100.00
74474;BME280;62922;-6.168;106.796;2023-07-31T12:43:37;64697.81;;;-141.63;100.00
74474;BME280;62922;-6.168;106.796;2023-07-31T12:46:06;64697.81;;;-141.63;100.00
74474;BME280;62922;-6.168;106.796;2023-07-31T12:48:34;64697.81;;;-141.63;100.00